createdAt,value
2023-01-19T00:02:08.137Z,13.85
2023-01-19T00:04:44.252Z,15.93
2023-01-19T00:07:18.147Z,15.35
2023-01-19T00:09:51.555Z,11.70
2023-01-19T00:12:24.970Z,14.33
2023-01-19T00:14:58.657Z,16.48
2023-01-19T00:17:32.498Z,12.50
2023-01-19T00:20:06.722Z,14.45
2023-01-19T00:22:40.151Z,11.28
2023-01-19T00:25:13.933Z,12.35
2023-01-19T00:27:49.670Z,13.93
2023-01-19T00:30:22.992Z,15.25
2023-01-19T00:32:56.372Z,9.83
2023-01-19T00:35:34.026Z,13.72
2023-01-19T00:38:07.902Z,13.55
2023-01-19T00:40:41.585Z,11.33
2023-01-19T00:43:15.321Z,16.25
2023-01-19T00:45:49.242Z,11.48
2023-01-19T00:48:22.740Z,12.37
2023-01-19T00:50:56.213Z,15.10
2023-01-19T00:53:31.702Z,12.65
2023-01-19T00:56:05.385Z,13.65
2023-01-19T00:58:38.784Z,13.35
2023-01-19T01:01:12.574Z,10.60
2023-01-19T01:03:46.129Z,10.80
2023-01-19T01:06:20.017Z,14.87
2023-01-19T01:08:53.550Z,13.30
2023-01-19T01:11:27.122Z,11.88
2023-01-19T01:14:00.523Z,13.22
2023-01-19T01:16:34.363Z,13.13
2023-01-19T01:19:10.495Z,13.60
2023-01-19T01:21:43.880Z,11.63
2023-01-19T01:24:19.003Z,17.10
2023-01-19T01:26:52.527Z,9.28
2023-01-19T01:29:26.315Z,13.53
2023-01-19T01:31:59.634Z,12.95
2023-01-19T01:34:34.109Z,13.98
2023-01-19T01:37:08.307Z,17.60
2023-01-19T01:39:45.171Z,11.68
2023-01-19T01:42:20.227Z,10.75
2023-01-19T01:44:55.456Z,13.30
2023-01-19T01:47:33.169Z,14.95
2023-01-19T01:50:11.309Z,15.28
2023-01-19T01:53:07.683Z,12.30
2023-01-19T01:55:23.995Z,12.18
2023-01-19T01:58:00.022Z,15.40
2023-01-19T02:00:36.265Z,15.32
2023-01-19T02:03:09.432Z,19.82
2023-01-19T02:05:46.260Z,16.75
2023-01-19T02:08:40.726Z,13.98
2023-01-19T02:11:32.065Z,12.50
2023-01-19T02:14:07.625Z,12.90
2023-01-19T02:16:42.175Z,16.97
2023-01-19T02:19:19.449Z,13.72
2023-01-19T02:21:57.309Z,11.30
2023-01-19T02:27:03.624Z,15.60
2023-01-19T02:29:38.168Z,13.75
2023-01-19T02:32:11.874Z,14.73
2023-01-19T02:34:45.078Z,12.53
2023-01-19T02:37:20.882Z,13.40
2023-01-19T02:39:56.769Z,11.63
2023-01-19T02:42:33.237Z,12.80
2023-01-19T02:45:10.004Z,11.65
2023-01-19T02:47:45.884Z,11.53
2023-01-19T02:50:41.912Z,13.28
2023-01-19T02:53:29.157Z,14.40
2023-01-19T02:56:06.070Z,14.25
2023-01-19T02:58:42.753Z,15.43
2023-01-19T03:01:19.433Z,12.75
2023-01-19T03:03:56.002Z,10.60
2023-01-19T03:06:36.158Z,11.63
2023-01-19T03:09:13.040Z,15.70
2023-01-19T03:11:50.183Z,14.67
2023-01-19T03:14:26.932Z,12.93
2023-01-19T03:17:04.310Z,16.17
2023-01-19T03:19:40.798Z,12.75
2023-01-19T03:22:17.977Z,16.17
2023-01-19T03:24:52.662Z,20.82
2023-01-19T03:27:29.165Z,17.27
2023-01-19T03:30:05.854Z,16.10
2023-01-19T03:32:41.936Z,13.62
2023-01-19T03:35:18.226Z,12.05
2023-01-19T03:37:54.338Z,12.98
2023-01-19T03:40:31.149Z,12.88
2023-01-19T03:43:05.841Z,10.50
2023-01-19T03:45:40.825Z,12.33
2023-01-19T03:48:14.447Z,16.37
2023-01-19T03:50:47.817Z,14.47
2023-01-19T03:53:22.762Z,16.95
2023-01-19T03:55:58.089Z,11.03
2023-01-19T03:58:31.323Z,14.18
2023-01-19T04:01:04.949Z,18.27
2023-01-19T04:03:38.302Z,18.55
2023-01-19T04:06:11.873Z,13.05
2023-01-19T04:08:45.405Z,14.73
2023-01-19T04:11:19.055Z,15.50
2023-01-19T04:13:52.611Z,13.83
2023-01-19T04:16:26.175Z,18.45
2023-01-19T04:18:59.557Z,12.63
2023-01-19T04:21:33.055Z,15.90
2023-01-19T04:24:06.902Z,18.40
2023-01-19T04:26:40.382Z,15.18
2023-01-19T04:29:14.458Z,16.10
2023-01-19T04:31:47.739Z,13.60
2023-01-19T04:34:20.952Z,17.10
2023-01-19T04:36:56.235Z,15.32
2023-01-19T04:39:29.778Z,14.18
2023-01-19T04:42:03.324Z,17.25
2023-01-19T04:44:36.771Z,15.48
2023-01-19T04:47:10.416Z,15.60
2023-01-19T04:49:43.797Z,12.85
2023-01-19T04:52:17.234Z,20.65
2023-01-19T04:54:50.801Z,10.95
2023-01-19T04:57:23.847Z,14.43
2023-01-19T04:59:57.465Z,13.95
2023-01-19T05:02:30.931Z,18.25
2023-01-19T05:05:04.602Z,14.35
2023-01-19T05:07:37.521Z,14.87
2023-01-19T05:10:13.507Z,15.25
2023-01-19T05:12:47.053Z,17.32
2023-01-19T05:15:20.882Z,18.55
2023-01-19T05:17:54.481Z,16.32
2023-01-19T05:20:27.906Z,15.75
2023-01-19T05:23:01.720Z,15.55
2023-01-19T05:25:37.578Z,19.32
2023-01-19T05:28:10.935Z,14.63
2023-01-19T05:30:44.314Z,16.40
2023-01-19T05:33:17.860Z,16.30
2023-01-19T05:35:52.093Z,15.93
2023-01-19T05:38:34.509Z,19.50
2023-01-19T05:41:01.159Z,15.43
2023-01-19T05:43:34.562Z,13.32
2023-01-19T05:46:08.376Z,10.82
2023-01-19T05:48:41.928Z,11.90
2023-01-19T05:51:15.305Z,14.10
2023-01-19T05:53:48.964Z,15.10
2023-01-19T05:56:22.718Z,20.48
2023-01-19T05:58:56.386Z,15.15
2023-01-19T06:01:30.637Z,17.37
2023-01-19T06:04:04.076Z,16.02
2023-01-19T06:06:37.599Z,16.35
2023-01-19T06:09:11.496Z,18.85
2023-01-19T06:11:45.545Z,15.95
2023-01-19T06:14:19.005Z,15.10
2023-01-19T06:16:52.510Z,17.05
2023-01-19T06:19:25.841Z,13.08
2023-01-19T06:21:59.798Z,14.45
2023-01-19T06:24:33.171Z,16.62
2023-01-19T06:27:06.773Z,13.85
2023-01-19T06:29:40.225Z,15.32
2023-01-19T06:32:15.873Z,17.42
2023-01-19T06:34:49.237Z,15.95
2023-01-19T06:37:22.768Z,15.58
2023-01-19T06:39:56.224Z,14.45
2023-01-19T06:42:29.849Z,16.42
2023-01-19T06:45:03.701Z,14.13
2023-01-19T06:47:36.930Z,12.68
2023-01-19T06:50:12.392Z,11.60
2023-01-19T06:52:45.841Z,21.57
2023-01-19T06:55:19.572Z,17.87
2023-01-19T06:57:58.663Z,15.45
2023-01-19T07:00:32.626Z,19.02
2023-01-19T07:03:08.425Z,14.90
2023-01-19T07:05:41.666Z,14.38
2023-01-19T07:08:15.820Z,13.62
2023-01-19T07:11:24.922Z,12.60
2023-01-19T07:13:24.323Z,19.25
2023-01-19T07:15:57.592Z,15.03
2023-01-19T07:18:31.947Z,14.45
2023-01-19T07:21:05.717Z,17.40
2023-01-19T07:23:39.296Z,15.50
2023-01-19T07:26:15.158Z,13.83
2023-01-19T07:28:49.068Z,16.80
2023-01-19T07:31:22.807Z,18.07
2023-01-19T07:33:56.355Z,15.38
2023-01-19T07:36:30.045Z,17.27
2023-01-19T07:39:03.555Z,15.28
2023-01-19T07:41:37.043Z,17.77
2023-01-19T07:44:10.768Z,16.07
2023-01-19T07:46:46.600Z,23.15
2023-01-19T07:49:20.691Z,15.32
2023-01-19T07:51:56.031Z,19.17
2023-01-19T07:54:29.716Z,16.55
2023-01-19T07:57:03.363Z,18.85
2023-01-19T07:59:36.724Z,20.02
2023-01-19T08:02:12.091Z,17.52
2023-01-19T08:04:45.532Z,14.05
2023-01-19T08:07:19.013Z,19.10
2023-01-19T08:09:52.512Z,16.12
2023-01-19T08:12:25.947Z,19.02
2023-01-19T08:14:59.389Z,18.05
2023-01-19T08:17:32.865Z,15.20
2023-01-19T08:20:09.481Z,15.72
2023-01-19T08:22:42.944Z,14.60
2023-01-19T08:25:19.224Z,21.50
2023-01-19T08:27:54.245Z,14.28
2023-01-19T08:30:27.838Z,16.65
2023-01-19T08:33:04.858Z,16.48
2023-01-19T08:35:40.215Z,13.50
2023-01-19T08:38:13.638Z,16.30
2023-01-19T08:40:47.106Z,16.77
2023-01-19T08:43:21.026Z,16.23
2023-01-19T08:45:56.773Z,18.55
2023-01-19T08:48:30.067Z,20.52
2023-01-19T08:51:03.503Z,18.48
2023-01-19T08:53:36.927Z,17.55
2023-01-19T08:56:12.757Z,21.12
2023-01-19T08:58:59.524Z,12.35
2023-01-19T09:01:24.091Z,18.87
2023-01-19T09:03:58.771Z,14.23
2023-01-19T09:06:32.846Z,16.57
2023-01-19T09:09:06.574Z,18.45
2023-01-19T09:11:39.811Z,21.82
2023-01-19T09:14:13.258Z,18.00
2023-01-19T09:16:46.644Z,17.70
2023-01-19T09:19:20.067Z,16.97
2023-01-19T09:21:54.612Z,10.90
2023-01-19T09:24:28.857Z,16.23
2023-01-19T09:27:02.406Z,20.65
2023-01-19T09:29:36.264Z,20.45
2023-01-19T09:32:11.538Z,22.07
2023-01-19T09:34:45.155Z,15.70
2023-01-19T09:37:18.665Z,17.52
2023-01-19T09:39:52.153Z,12.28
2023-01-19T09:42:28.855Z,17.50
2023-01-19T09:45:04.776Z,16.77
2023-01-19T09:47:40.368Z,21.85
2023-01-19T09:50:17.018Z,21.05
2023-01-19T09:52:53.107Z,15.58
2023-01-19T09:55:28.914Z,20.62
2023-01-19T09:58:02.969Z,15.00
2023-01-19T10:00:36.824Z,16.10
2023-01-19T10:03:14.734Z,15.90
2023-01-19T10:08:25.264Z,20.23
2023-01-19T10:11:00.332Z,25.12
2023-01-19T10:13:37.907Z,22.55
2023-01-19T10:16:18.198Z,25.35
2023-01-19T10:18:54.223Z,24.52
2023-01-19T10:21:31.611Z,19.67
2023-01-19T10:24:08.377Z,24.05
2023-01-19T10:26:44.813Z,21.25
2023-01-19T10:29:21.373Z,17.25
2023-01-19T10:31:57.783Z,23.05
2023-01-19T10:34:31.343Z,23.42
2023-01-19T10:37:08.676Z,24.18
2023-01-19T10:39:43.787Z,23.18
2023-01-19T10:42:19.122Z,20.43
2023-01-19T10:44:52.821Z,28.32
2023-01-19T10:47:29.975Z,25.27
2023-01-19T10:50:05.280Z,23.20
2023-01-19T10:52:42.333Z,19.35
2023-01-19T10:55:24.321Z,23.12
2023-01-19T10:57:58.765Z,23.25
2023-01-19T11:00:38.460Z,26.62
2023-01-19T11:03:31.573Z,22.30
2023-01-19T11:06:22.900Z,27.42
2023-01-19T11:09:04.303Z,22.58
2023-01-19T11:11:44.684Z,23.85
2023-01-19T11:14:23.416Z,20.65
2023-01-19T11:16:59.403Z,25.88
2023-01-19T11:19:34.847Z,22.90
2023-01-19T11:22:21.944Z,31.97
2023-01-19T11:24:56.986Z,25.37
2023-01-19T11:27:33.413Z,22.98
2023-01-19T11:30:12.448Z,26.87
2023-01-19T11:32:49.432Z,29.67
2023-01-19T11:35:39.419Z,19.63
2023-01-19T11:38:26.117Z,23.27
2023-01-19T11:41:18.364Z,29.85
2023-01-19T11:44:17.504Z,25.12
2023-01-19T11:47:00.939Z,20.92
2023-01-19T11:49:43.115Z,21.80
2023-01-19T11:52:19.986Z,28.05
2023-01-19T11:54:56.744Z,29.52
2023-01-19T11:57:30.436Z,21.85
2023-01-19T12:00:07.465Z,21.85
2023-01-19T12:02:44.278Z,34.23
2023-01-19T12:05:20.500Z,30.65
2023-01-19T12:07:55.073Z,28.25
2023-01-19T12:10:31.464Z,32.05
2023-01-19T12:13:05.965Z,30.12
2023-01-19T12:15:42.410Z,28.42
2023-01-19T12:18:19.517Z,30.15
2023-01-19T12:20:55.446Z,24.05
2023-01-19T12:23:34.054Z,37.83
2023-01-19T12:26:24.829Z,27.45
2023-01-19T12:29:01.575Z,21.75
2023-01-19T12:31:36.444Z,31.62
2023-01-19T12:37:35.512Z,22.22
2023-01-19T12:40:23.809Z,35.63
2023-01-19T12:43:03.273Z,33.55
2023-01-19T12:45:39.381Z,31.70
2023-01-19T12:48:26.164Z,32.03
2023-01-19T12:50:59.847Z,27.33
2023-01-19T12:53:33.406Z,22.22
2023-01-19T12:56:10.147Z,27.32
2023-01-19T12:58:50.004Z,32.48
2023-01-19T13:01:25.226Z,19.37
2023-01-19T13:04:06.741Z,29.07
2023-01-19T13:07:13.038Z,31.02
2023-01-19T13:09:46.650Z,24.82
2023-01-19T13:12:29.619Z,31.73
2023-01-19T13:15:30.157Z,25.40
2023-01-19T13:18:04.233Z,27.65
2023-01-19T13:20:45.682Z,21.30
2023-01-19T13:23:25.123Z,30.35
2023-01-19T13:26:03.723Z,25.70
2023-01-19T13:28:43.146Z,27.87
2023-01-19T13:31:17.910Z,26.05
2023-01-19T13:33:54.458Z,29.67
2023-01-19T13:36:31.124Z,24.98
2023-01-19T13:39:07.201Z,35.75
2023-01-19T13:41:42.421Z,22.22
2023-01-19T13:44:21.045Z,19.15
2023-01-19T13:46:56.570Z,19.92
2023-01-19T13:49:32.825Z,25.25
2023-01-19T13:52:15.126Z,25.12
2023-01-19T13:54:53.361Z,19.17
2023-01-19T13:57:29.416Z,30.95
2023-01-19T14:00:18.780Z,28.47
2023-01-19T14:03:00.873Z,27.85
2023-01-19T14:05:36.949Z,25.80
2023-01-19T14:08:18.135Z,38.00
2023-01-19T14:11:02.651Z,30.90
2023-01-19T14:13:39.647Z,33.80
2023-01-19T14:16:16.688Z,18.67
2023-01-19T14:18:52.859Z,27.60
2023-01-19T14:21:26.454Z,32.67
2023-01-19T14:24:08.709Z,24.60
2023-01-19T14:26:51.404Z,36.95
2023-01-19T14:29:31.763Z,27.52
2023-01-19T14:32:16.145Z,28.60
2023-01-19T14:34:55.567Z,34.83
2023-01-19T14:57:47.490Z,32.78
2023-01-19T15:03:14.883Z,29.20
2023-01-19T15:05:49.080Z,24.72
2023-01-19T15:08:24.782Z,18.37
2023-01-19T15:10:59.436Z,22.93
2023-01-19T15:13:33.020Z,22.85
2023-01-19T15:16:09.050Z,19.45
2023-01-19T15:18:42.831Z,24.80
2023-01-19T15:21:20.627Z,22.82
2023-01-19T15:23:54.552Z,22.50
2023-01-19T15:26:29.216Z,18.95
2023-01-19T15:29:02.850Z,24.20
2023-01-19T15:31:37.227Z,30.75
2023-01-19T15:34:14.770Z,20.92
2023-01-19T15:36:48.309Z,21.60
2023-01-19T15:39:21.790Z,18.65
2023-01-19T15:41:55.794Z,25.72
2023-01-19T15:44:29.527Z,24.65
2023-01-19T15:47:02.976Z,17.40
2023-01-19T15:49:36.062Z,19.80
2023-01-19T15:52:09.477Z,22.48
2023-01-19T15:54:42.945Z,21.57
2023-01-19T15:57:17.931Z,21.77
2023-01-19T15:59:52.239Z,18.90
2023-01-19T16:02:25.571Z,18.00
2023-01-19T16:04:59.071Z,21.40
2023-01-19T16:07:34.500Z,14.20
2023-01-19T16:10:10.336Z,14.13
2023-01-19T16:12:44.454Z,15.90
2023-01-19T16:15:18.970Z,14.55
2023-01-19T16:17:52.643Z,16.40
2023-01-19T16:20:26.259Z,12.50
2023-01-19T16:23:13.526Z,15.53
2023-01-19T16:25:35.995Z,18.75
2023-01-19T16:28:09.715Z,14.23
2023-01-19T16:30:43.351Z,13.90
2023-01-19T16:33:16.750Z,17.60
2023-01-19T16:35:50.768Z,14.98
2023-01-19T16:38:25.087Z,21.02
2023-01-19T16:40:58.487Z,20.30
2023-01-19T16:43:34.852Z,18.87
2023-01-19T16:46:08.267Z,20.80
2023-01-19T16:48:41.727Z,17.40
2023-01-19T16:51:15.327Z,20.35
2023-01-19T16:53:50.374Z,19.65
2023-01-19T16:56:23.877Z,16.97
2023-01-19T16:58:58.241Z,16.60
2023-01-19T17:01:31.974Z,15.83
2023-01-19T17:04:05.710Z,24.35
2023-01-19T17:06:39.083Z,12.60
2023-01-19T17:09:12.908Z,17.50
2023-01-19T17:11:46.534Z,17.25
2023-01-19T17:14:21.333Z,16.23
2023-01-19T17:16:55.014Z,15.60
2023-01-19T17:19:28.449Z,18.57
2023-01-19T17:22:02.726Z,15.68
2023-01-19T17:24:36.183Z,17.17
2023-01-19T17:27:10.480Z,19.57
2023-01-19T17:29:44.002Z,18.32
2023-01-19T17:32:17.391Z,18.07
2023-01-19T17:34:52.481Z,17.35
2023-01-19T17:37:25.944Z,12.65
2023-01-19T17:39:59.235Z,15.88
2023-01-19T17:42:32.504Z,20.75
2023-01-19T17:45:06.763Z,11.75
2023-01-19T17:47:40.324Z,13.75
2023-01-19T17:50:14.595Z,17.10
2023-01-19T17:52:48.374Z,12.55
2023-01-19T17:55:21.877Z,15.10
2023-01-19T17:57:55.217Z,14.45
2023-01-19T18:00:29.433Z,12.43
2023-01-19T18:03:02.932Z,16.42
2023-01-19T18:05:36.293Z,12.40
2023-01-19T18:08:09.858Z,16.67
2023-01-19T18:10:43.467Z,16.60
2023-01-19T18:13:16.831Z,17.50
2023-01-19T18:15:50.326Z,19.77
2023-01-19T18:18:23.716Z,19.82
2023-01-19T18:21:00.879Z,19.82
2023-01-19T18:23:34.146Z,19.77
2023-01-19T18:26:09.730Z,15.50
2023-01-19T18:28:43.739Z,22.50
2023-01-19T18:31:19.117Z,15.55
2023-01-19T18:33:52.824Z,15.38
2023-01-19T18:36:26.322Z,14.20
2023-01-19T18:39:00.120Z,17.12
2023-01-19T18:41:35.689Z,14.05
2023-01-19T18:44:09.293Z,18.80
2023-01-19T18:46:42.494Z,23.05
2023-01-19T18:49:16.015Z,17.87
2023-01-19T18:51:49.714Z,19.60
2023-01-19T18:54:23.205Z,22.82
2023-01-19T18:56:56.595Z,20.82
2023-01-19T18:59:30.752Z,19.05
2023-01-19T19:02:07.865Z,22.05
2023-01-19T19:04:43.441Z,21.97
2023-01-19T19:07:16.949Z,24.18
2023-01-19T19:09:50.696Z,22.87
2023-01-19T19:12:23.935Z,21.60
2023-01-19T19:14:57.421Z,30.97
2023-01-19T19:17:33.000Z,24.87
2023-01-19T19:20:09.008Z,38.83
2023-01-19T19:22:43.856Z,28.70
2023-01-19T19:25:18.912Z,30.48
2023-01-19T19:27:54.315Z,30.72
2023-01-19T19:30:29.484Z,26.05
2023-01-19T19:33:03.679Z,21.35
2023-01-19T19:35:37.227Z,31.75
2023-01-19T19:38:10.631Z,22.30
2023-01-19T19:40:44.117Z,34.80
2023-01-19T19:43:17.560Z,27.90
2023-01-19T19:46:00.519Z,33.30
2023-01-19T19:48:34.318Z,26.90
2023-01-19T19:51:18.407Z,21.25
2023-01-19T19:53:51.318Z,30.88
2023-01-19T19:56:26.070Z,23.77
2023-01-19T19:59:00.896Z,29.85
2023-01-19T20:01:34.961Z,29.92
2023-01-19T20:04:11.030Z,29.90
2023-01-19T20:06:49.370Z,22.62
2023-01-19T20:09:27.901Z,25.65
2023-01-19T20:12:02.521Z,28.12
2023-01-19T20:14:36.104Z,24.60
2023-01-19T20:17:10.233Z,24.98
2023-01-19T20:19:47.332Z,27.77
2023-01-19T20:22:21.817Z,23.40
2023-01-19T20:24:55.483Z,21.97
2023-01-19T20:27:29.049Z,22.02
2023-01-19T20:30:02.459Z,22.77
2023-01-19T20:32:35.867Z,20.95
2023-01-19T20:35:09.853Z,23.55
2023-01-19T20:37:43.304Z,21.40
2023-01-19T20:40:18.123Z,25.32
2023-01-19T20:42:51.657Z,21.95
2023-01-19T20:45:26.144Z,21.45
2023-01-19T20:47:59.703Z,24.15
2023-01-19T20:50:32.784Z,19.82
2023-01-19T20:53:06.574Z,25.30
2023-01-19T20:55:42.332Z,15.75
2023-01-19T20:58:15.820Z,28.70
2023-01-19T21:00:49.945Z,20.43
2023-01-19T21:03:23.853Z,20.45
2023-01-19T21:05:59.524Z,23.62
2023-01-19T21:08:32.313Z,26.00
2023-01-19T21:11:06.316Z,30.30
2023-01-19T21:13:40.018Z,32.35
2023-01-19T21:16:15.007Z,32.48
2023-01-19T21:18:48.099Z,30.95
2023-01-19T21:21:30.317Z,29.85
2023-01-19T21:23:59.588Z,33.40
2023-01-19T21:26:34.254Z,26.35
2023-01-19T21:29:07.396Z,34.35
2023-01-19T21:31:41.054Z,39.05
2023-01-19T21:34:14.822Z,34.78
2023-01-19T21:36:48.458Z,28.07
2023-01-19T21:39:21.949Z,35.68
2023-01-19T21:41:55.551Z,41.40
2023-01-19T21:44:29.028Z,30.80
2023-01-19T21:47:03.606Z,28.32
2023-01-19T21:49:37.212Z,38.02
2023-01-19T21:52:10.858Z,35.35
2023-01-19T21:54:45.413Z,33.70
2023-01-19T21:57:19.887Z,31.40
2023-01-19T21:59:53.556Z,33.00
2023-01-19T22:02:37.987Z,37.90
2023-01-19T22:05:02.150Z,30.95
2023-01-19T22:07:35.849Z,26.75
2023-01-19T22:10:11.748Z,33.95
2023-01-19T22:12:45.344Z,33.58
2023-01-19T22:15:19.322Z,34.43
2023-01-19T22:17:52.898Z,32.55
2023-01-19T22:20:26.664Z,25.90
2023-01-19T22:22:59.959Z,34.08
2023-01-19T22:25:35.211Z,37.17
2023-01-19T22:28:08.761Z,28.67
2023-01-19T22:30:42.936Z,29.65
2023-01-19T22:33:16.489Z,27.52
2023-01-19T22:35:49.749Z,27.15
2023-01-19T22:38:22.918Z,37.15
2023-01-19T22:40:56.369Z,37.15
2023-01-19T22:43:29.905Z,38.95
2023-01-19T22:46:04.235Z,33.63
2023-01-19T22:48:38.102Z,33.55
2023-01-19T22:51:12.057Z,33.20
2023-01-19T22:53:45.819Z,38.17
2023-01-19T22:56:21.390Z,31.12
2023-01-19T22:58:55.574Z,37.38
2023-01-19T23:01:31.611Z,47.13
2023-01-19T23:04:07.852Z,35.98
2023-01-19T23:06:42.149Z,38.38
2023-01-19T23:09:16.689Z,39.00
2023-01-19T23:11:51.473Z,34.85
2023-01-19T23:14:25.281Z,36.38
2023-01-19T23:16:58.647Z,31.73
2023-01-19T23:19:31.974Z,40.83
2023-01-19T23:22:05.221Z,37.78
2023-01-19T23:24:38.765Z,35.20
2023-01-19T23:27:12.310Z,36.38
2023-01-19T23:29:45.991Z,39.75
2023-01-19T23:32:19.400Z,31.42
2023-01-19T23:34:52.918Z,28.87
2023-01-19T23:37:26.364Z,37.78
2023-01-19T23:39:59.789Z,34.18
2023-01-19T23:42:33.950Z,38.53
2023-01-19T23:45:09.780Z,26.15
2023-01-19T23:47:46.734Z,33.73
2023-01-19T23:50:20.914Z,30.83
2023-01-19T23:52:54.336Z,34.03
2023-01-19T23:55:29.470Z,39.40
2023-01-19T23:58:02.920Z,35.17
